Albion, Idaho
Current Conditions -  °F | °C
As of 7:53 PM on Friday 19 Dec 2014 (Local Time) from KBYI Reporting Station
Light Rain Light Rain  
Wind Chill: 31°   Ceiling: 2100
Heat Index: 37°   Visibility: 10mi
Dew Point: 34°   Wind: 8mph
Humidity: 89%   Direction: 200°SSW
Pressure: 30.08"   Gusts: NA
Location:  42.41°N, 113.58°W
Report Text: KBYI 200253Z AUTO 20007KT 10SM -RA OVC021 03/01 A3008 RMK AO2 SLP192 P0002 60007 T00280011 50001
Loading
Personal Weather Stations






























Interactive Weather Map New forecast layout! Learn more

10-Day Weather Forecast

Advertisements
Track Severe Weather on mobile